Hlavní strana
METAR-TAF:

METAR-TAF

Letiště :

Kostanay, Kazachstán

zeměpisná šířka: 53-12-23N, zeměpisná délka: 063-33-03E, výška: 182 m

Aktuální stav počasí

Zpráva byla vytvořena před 15 minutami, v 01:00 UTC
Západní vítr 6 kt
Teplota 15°C
Vlhkost vzduchu 88%
Tlak 1009 hPa
Viditelnost 10 km a více
Oblačno až skoro zataženo ve výšce 3600 ft

METAR: UAUU 220100Z 28003MPS 9999 BKN036 15/13 Q1009 R33/CLRD70 NOSIG RMK QFE741/0988

Čas: 07:15 (01:15 UTC)

Předpověď počasí

Zpráva byla vytvořena před 2 hodinami a 15 minutami, v 23:00 UTC
Předpověď platná od 22 v 00 UTC do 22 v 09 UTC
Západní vítr 10 kt
Viditelnost 10 km a více
Oblačno až skoro zataženo ve výšce 2000 ft, Cumulonimbus.
Dočasný
od 22 v 00 UTC do 22 v 03 UTC
Viditelnost: 3000 m
slabé dešťové přeháňky, kouřmo

TAF: UAUU 212300Z 2200/2209 27005MPS 9999 BKN020CB TEMPO 2200/2203 3000 -SHRA BR

Stav a předpovědi počasí z více než 4 000 letišť (zprávy METAR a TAF).

Červené a žluté tečky na mapě představují dostupné meteorologické stanice.

Když kurzor umístíte na tečku, zobrazí se název stanice.

Pak kliknutím zobrazíte stav a předpověď počasí.

Chcete-li změnit mapu, kliknutím na zelené tlačítko se znaménkem +mapu přiblížíte, kliknutím na zelené tlačítko se znaménkem – mapu oddálíte a kliknutím na zelené šipky přejdete na sousední mapy.


METAR-TAF: